Time;durP1;ratioP1;P1;durP2;ratioP2;P2;SDS_P1;SDS_P2;PMS_P1;PMS_P2;Temp;Humidity;BMP_temperature;BMP_pressure;BME280_temperature;BME280_humidity;BME280_pressure;Samples;Min_cycle;Max_cycle;Signal;HPM_P1;HPM_P2
2022/07/23 00:01:34;;;;;;;9.25;2.13;;;45.70;25.80;;;;;;4990371;28;20033;-67
2022/07/23 00:04:01;;;;;;;8.80;2.10;;;45.70;26.10;;;;;;4988856;28;20472;-65
2022/07/23 00:06:27;;;;;;;8.40;2.03;;;45.70;25.60;;;;;;4989969;28;20735;-65
2022/07/23 00:08:54;;;;;;;10.95;2.00;;;45.70;25.70;;;;;;5006549;28;20030;-65
2022/07/23 00:11:21;;;;;;;9.05;1.80;;;45.60;25.80;;;;;;4994286;28;20061;-64
2022/07/23 00:13:48;;;;;;;8.85;2.03;;;45.60;25.70;;;;;;5009968;28;20036;-63
2022/07/23 00:16:14;;;;;;;13.13;2.35;;;45.50;25.90;;;;;;5008190;28;20083;-64
2022/07/23 00:18:41;;;;;;;6.72;2.20;;;45.30;27.00;;;;;;4992015;28;20026;-64
2022/07/23 00:21:07;;;;;;;9.88;1.85;;;45.30;26.90;;;;;;5006285;28;20706;-64
2022/07/23 00:23:34;;;;;;;11.77;2.10;;;45.30;26.90;;;;;;5008121;28;20034;-64
2022/07/23 00:26:00;;;;;;;18.65;2.65;;;45.20;26.20;;;;;;4993002;28;20404;-65
2022/07/23 00:28:27;;;;;;;8.90;2.17;;;45.00;26.50;;;;;;5011250;28;20041;-66
2022/07/23 00:30:53;;;;;;;12.43;1.70;;;45.00;26.50;;;;;;5009486;28;20431;-64
2022/07/23 00:33:19;;;;;;;12.57;1.73;;;45.00;26.70;;;;;;4988909;28;20034;-63
2022/07/23 00:35:46;;;;;;;24.02;2.33;;;44.80;27.30;;;;;;5007914;28;20041;-64
2022/07/23 00:38:12;;;;;;;10.70;1.90;;;44.80;27.00;;;;;;4992370;28;20033;-64
2022/07/23 00:40:39;;;;;;;37.35;3.08;;;44.70;26.70;;;;;;5008534;28;20030;-65
2022/07/23 00:43:06;;;;;;;13.07;2.20;;;44.60;26.50;;;;;;4990367;28;20030;-66
2022/07/23 00:45:32;;;;;;;15.02;2.28;;;44.60;26.70;;;;;;4996241;28;20022;-66
2022/07/23 00:47:59;;;;;;;13.75;2.60;;;44.60;26.80;;;;;;4990992;28;20071;-67
2022/07/23 00:50:26;;;;;;;9.25;2.03;;;44.50;27.20;;;;;;5006671;28;20079;-65
2022/07/23 00:52:53;;;;;;;18.88;2.55;;;44.40;26.80;;;;;;4991431;28;20048;-63
2022/07/23 00:55:20;;;;;;;15.05;2.92;;;44.40;26.80;;;;;;5008078;28;20026;-65
2022/07/23 00:57:47;;;;;;;12.30;2.13;;;44.30;26.90;;;;;;5007369;28;20025;-65
2022/07/23 01:00:14;;;;;;;11.43;2.30;;;44.30;27.20;;;;;;4992824;28;20030;-66
2022/07/23 01:02:42;;;;;;;15.50;2.22;;;44.10;26.90;;;;;;5007793;28;20038;-64
2022/07/23 01:05:09;;;;;;;15.43;2.67;;;44.10;27.40;;;;;;5006784;28;20033;-64
2022/07/23 01:07:36;;;;;;;11.27;1.95;;;44.10;27.40;;;;;;4991217;28;20042;-65
2022/07/23 01:10:04;;;;;;;15.77;2.75;;;44.00;27.40;;;;;;4991525;28;20491;-66
2022/07/23 01:12:30;;;;;;;18.75;2.63;;;43.90;27.80;;;;;;5008890;28;20373;-67
2022/07/23 01:14:58;;;;;;;8.55;2.25;;;43.80;28.00;;;;;;5007490;28;20513;-68
2022/07/23 01:17:26;;;;;;;15.55;2.70;;;43.70;29.10;;;;;;4990938;28;20456;-66
2022/07/23 01:19:52;;;;;;;17.55;2.78;;;43.70;28.20;;;;;;4992100;28;20419;-68
2022/07/23 01:22:20;;;;;;;10.52;1.98;;;43.70;28.30;;;;;;5007061;28;20058;-65
2022/07/23 01:24:47;;;;;;;10.35;2.28;;;43.50;28.30;;;;;;4994857;28;20037;-65
2022/07/23 01:27:13;;;;;;;12.40;2.15;;;43.40;28.20;;;;;;4992487;28;20039;-65
2022/07/23 01:29:40;;;;;;;14.20;2.33;;;43.30;28.20;;;;;;5008621;28;20072;-63
2022/07/23 01:32:07;;;;;;;13.93;2.67;;;43.10;28.40;;;;;;4992166;28;20043;-64
2022/07/23 01:34:33;;;;;;;11.55;2.15;;;43.10;28.80;;;;;;5000141;28;20170;-64
2022/07/23 01:36:59;;;;;;;12.18;2.53;;;43.00;28.20;;;;;;5008961;28;20052;-64
2022/07/23 01:39:26;;;;;;;12.30;2.00;;;42.90;29.00;;;;;;4994297;28;20441;-66
2022/07/23 01:41:52;;;;;;;13.65;2.50;;;42.70;29.00;;;;;;5012446;28;20085;-63
2022/07/23 01:44:18;;;;;;;7.53;2.00;;;42.80;28.90;;;;;;4994592;28;20485;-63
2022/07/23 01:46:45;;;;;;;18.55;1.98;;;42.70;28.70;;;;;;5010914;28;20052;-65
2022/07/23 01:49:11;;;;;;;9.95;2.28;;;42.70;28.80;;;;;;4994072;28;20163;-66
2022/07/23 01:51:59;;;;;;;14.65;3.58;;;42.70;28.90;;;;;;5007098;28;20043;-65
2022/07/23 01:54:24;;;;;;;18.27;2.75;;;42.70;28.90;;;;;;5011545;28;20059;-63
2022/07/23 01:56:50;;;;;;;11.02;1.92;;;42.60;29.20;;;;;;4995367;28;20040;-64
2022/07/23 01:59:16;;;;;;;8.10;1.90;;;42.50;29.20;;;;;;4995593;28;20144;-64
2022/07/23 02:01:43;;;;;;;14.00;2.35;;;42.40;29.20;;;;;;4996648;28;20049;-65
2022/07/23 02:04:09;;;;;;;10.05;2.17;;;42.40;29.30;;;;;;4993487;28;20103;-67
2022/07/23 02:06:36;;;;;;;14.98;2.33;;;42.30;29.20;;;;;;5010315;28;20040;-65
2022/07/23 02:09:02;;;;;;;15.27;1.98;;;42.20;29.40;;;;;;5010079;28;20052;-64
2022/07/23 02:11:29;;;;;;;17.38;2.58;;;42.00;29.40;;;;;;5007681;28;20035;-64
2022/07/23 02:13:55;;;;;;;17.42;2.22;;;41.90;29.50;;;;;;5012536;28;20482;-65
2022/07/23 02:16:22;;;;;;;11.30;2.17;;;41.90;29.90;;;;;;4994420;28;20049;-64
2022/07/23 02:18:48;;;;;;;12.30;2.00;;;41.80;29.90;;;;;;5010346;28;20049;-64
2022/07/23 02:21:14;;;;;;;10.68;2.25;;;41.70;30.20;;;;;;5010712;28;20456;-64
2022/07/23 02:23:41;;;;;;;18.55;2.53;;;41.60;30.60;;;;;;4994297;28;20519;-64
2022/07/23 02:26:07;;;;;;;15.52;2.30;;;41.50;30.70;;;;;;4993273;28;20050;-64
2022/07/23 02:28:34;;;;;;;12.45;2.30;;;41.40;30.80;;;;;;4978982;28;20404;-66
2022/07/23 02:31:00;;;;;;;19.52;2.47;;;41.40;30.90;;;;;;4979553;28;20064;-64
2022/07/23 02:33:26;;;;;;;13.02;2.45;;;41.30;31.40;;;;;;5011647;28;20053;-65
2022/07/23 02:35:53;;;;;;;24.10;2.70;;;41.20;31.60;;;;;;5013887;28;20987;-64
2022/07/23 02:38:19;;;;;;;19.20;2.40;;;41.00;32.10;;;;;;5010417;28;20080;-66
2022/07/23 02:40:46;;;;;;;15.73;2.75;;;40.80;33.20;;;;;;4992659;28;20092;-65
2022/07/23 02:43:12;;;;;;;23.20;2.45;;;40.80;32.60;;;;;;4993697;28;20061;-64
2022/07/23 02:45:38;;;;;;;17.30;2.60;;;40.70;33.10;;;;;;4992949;28;21028;-64
2022/07/23 02:48:05;;;;;;;23.95;2.95;;;40.70;33.20;;;;;;4996011;28;20053;-65
2022/07/23 02:50:31;;;;;;;17.17;2.53;;;40.50;33.50;;;;;;4992706;28;20417;-64
2022/07/23 02:52:58;;;;;;;23.63;2.80;;;40.40;33.60;;;;;;4993839;28;20049;-64
2022/07/23 02:55:24;;;;;;;18.10;2.38;;;40.40;33.60;;;;;;5011999;28;20510;-65
2022/07/23 02:57:50;;;;;;;24.80;2.60;;;40.30;33.70;;;;;;4975852;28;20083;-63
2022/07/23 03:00:17;;;;;;;22.67;2.97;;;40.30;33.70;;;;;;4993801;28;20065;-66
2022/07/23 03:02:43;;;;;;;18.20;3.08;;;40.20;33.90;;;;;;4976193;28;20075;-64
2022/07/23 03:05:10;;;;;;;16.05;2.40;;;40.10;33.80;;;;;;4991321;28;20133;-64
2022/07/23 03:07:36;;;;;;;11.23;2.10;;;40.10;34.00;;;;;;5009048;28;20046;-64
2022/07/23 03:10:03;;;;;;;14.40;2.30;;;39.90;34.00;;;;;;5009518;28;20063;-64
2022/07/23 03:12:29;;;;;;;17.85;3.40;;;39.90;34.20;;;;;;4993216;28;20050;-65
2022/07/23 03:14:56;;;;;;;20.20;2.50;;;39.80;34.60;;;;;;5011791;28;20057;-64
2022/07/23 03:17:22;;;;;;;11.25;2.58;;;39.70;35.10;;;;;;5008425;28;20058;-64
2022/07/23 03:19:48;;;;;;;19.25;2.70;;;39.60;35.00;;;;;;4996458;28;20079;-64
2022/07/23 03:22:15;;;;;;;12.65;2.30;;;39.60;35.20;;;;;;4992887;28;20064;-60
2022/07/23 03:24:53;;;;;;;20.27;2.70;;;39.60;35.40;;;;;;5010075;28;20046;-65
2022/07/23 03:27:20;;;;;;;25.90;2.92;;;39.50;35.20;;;;;;5010530;28;20577;-63
2022/07/23 03:29:47;;;;;;;15.93;2.70;;;39.40;35.90;;;;;;4993367;28;20063;-67
2022/07/23 03:32:13;;;;;;;24.65;3.08;;;39.40;36.00;;;;;;5011541;28;20063;-66
2022/07/23 03:34:39;;;;;;;15.15;2.42;;;39.20;35.10;;;;;;5008682;28;20135;-67
2022/07/23 03:37:06;;;;;;;19.88;2.90;;;39.20;36.40;;;;;;5008311;28;20054;-64
2022/07/23 03:39:32;;;;;;;19.42;3.20;;;39.20;35.80;;;;;;5008150;28;20050;-67
2022/07/23 03:41:59;;;;;;;11.00;2.38;;;39.10;35.50;;;;;;4992738;28;20086;-66
2022/07/23 03:44:25;;;;;;;12.88;2.97;;;39.00;35.90;;;;;;4992392;28;20556;-66
2022/07/23 03:46:52;;;;;;;19.17;3.38;;;38.90;35.40;;;;;;5008954;28;20054;-66
2022/07/23 03:49:18;;;;;;;12.65;2.75;;;38.90;35.00;;;;;;4991339;28;20119;-65
2022/07/23 03:51:44;;;;;;;16.95;3.17;;;38.80;35.00;;;;;;5008896;28;20188;-64
2022/07/23 03:54:11;;;;;;;8.88;3.00;;;38.80;35.00;;;;;;5008911;28;20050;-66
2022/07/23 03:56:37;;;;;;;17.15;2.67;;;38.80;34.80;;;;;;5009009;28;20608;-65
2022/07/23 03:59:04;;;;;;;14.10;2.72;;;38.80;35.10;;;;;;5010599;28;20063;-65
2022/07/23 04:01:31;;;;;;;13.77;2.95;;;38.70;34.70;;;;;;4991374;28;20083;-64
2022/07/23 04:03:57;;;;;;;13.27;3.05;;;38.70;34.70;;;;;;5002188;28;20154;-66
2022/07/23 04:06:24;;;;;;;14.35;4.00;;;38.70;34.70;;;;;;4992054;28;20055;-65
2022/07/23 04:08:50;;;;;;;18.98;4.28;;;38.70;34.80;;;;;;5007831;28;20055;-64
2022/07/23 04:11:16;;;;;;;17.10;3.30;;;38.60;34.60;;;;;;4992347;28;20083;-65
2022/07/23 04:13:43;;;;;;;14.93;2.55;;;38.50;35.30;;;;;;5008284;28;20067;-66
2022/07/23 04:16:09;;;;;;;14.65;2.60;;;38.50;34.70;;;;;;4991162;28;20088;-67
2022/07/23 04:18:35;;;;;;;11.30;2.63;;;38.40;35.10;;;;;;4991923;28;20178;-64
2022/07/23 04:21:02;;;;;;;15.77;2.88;;;38.40;35.20;;;;;;4975842;28;20061;-66
2022/07/23 04:23:28;;;;;;;15.13;3.25;;;38.30;35.00;;;;;;4992009;28;20079;-65
2022/07/23 04:25:55;;;;;;;14.80;3.58;;;38.30;35.20;;;;;;4991062;28;20522;-65
2022/07/23 04:28:21;;;;;;;14.73;3.03;;;38.20;35.60;;;;;;5004020;28;20094;-65
2022/07/23 04:30:47;;;;;;;18.55;3.22;;;38.10;35.70;;;;;;5009645;28;20055;-64
2022/07/23 04:33:14;;;;;;;19.27;3.05;;;38.10;36.00;;;;;;4976482;28;20109;-66
2022/07/23 04:35:40;;;;;;;11.45;3.22;;;38.10;36.00;;;;;;5007977;28;20075;-64
2022/07/23 04:38:07;;;;;;;13.70;2.85;;;38.10;36.30;;;;;;4991191;28;20067;-65
2022/07/23 04:40:33;;;;;;;20.38;2.58;;;38.00;36.40;;;;;;4990010;28;20182;-65
2022/07/23 04:43:00;;;;;;;13.45;2.80;;;37.90;37.00;;;;;;4989922;28;20203;-65
2022/07/23 04:45:26;;;;;;;17.67;3.20;;;37.80;37.30;;;;;;5008048;28;20666;-64
2022/07/23 04:47:52;;;;;;;16.95;4.38;;;37.90;37.40;;;;;;4991686;28;20515;-65
2022/07/23 04:50:21;;;;;;;17.17;4.57;;;37.80;37.40;;;;;;4986325;28;20111;-65
2022/07/23 04:52:50;;;;;;;14.88;4.65;;;37.80;37.50;;;;;;4988723;28;20094;-64
2022/07/23 04:55:17;;;;;;;14.68;4.63;;;37.80;37.80;;;;;;4985243;28;20062;-65
2022/07/23 04:57:43;;;;;;;26.08;5.45;;;37.80;37.80;;;;;;4988492;28;20451;-66
2022/07/23 05:00:10;;;;;;;23.25;4.95;;;37.80;38.10;;;;;;5005151;28;20060;-65
2022/07/23 05:02:37;;;;;;;16.50;4.38;;;37.70;38.40;;;;;;4989328;28;20135;-65
2022/07/23 05:05:03;;;;;;;22.95;4.63;;;37.70;39.00;;;;;;4987890;28;20062;-65
2022/07/23 05:07:30;;;;;;;24.77;4.82;;;37.60;39.10;;;;;;4988304;28;20161;-64
2022/07/23 05:09:56;;;;;;;19.05;4.22;;;37.60;39.40;;;;;;4988237;28;20072;-64
2022/07/23 05:12:23;;;;;;;19.35;4.07;;;37.50;39.50;;;;;;4988266;28;20093;-64
2022/07/23 05:14:49;;;;;;;23.58;4.55;;;37.50;39.70;;;;;;4990809;28;20066;-63
2022/07/23 05:17:15;;;;;;;18.65;3.70;;;37.40;40.70;;;;;;5003977;28;20071;-65
2022/07/23 05:19:42;;;;;;;27.00;4.65;;;37.30;40.60;;;;;;4971839;28;20092;-65
2022/07/23 05:22:08;;;;;;;12.40;3.40;;;37.20;40.70;;;;;;4987640;28;20103;-66
2022/07/23 05:24:34;;;;;;;22.92;3.33;;;37.20;41.40;;;;;;4986953;28;20116;-65
2022/07/23 05:27:01;;;;;;;29.05;3.85;;;37.10;41.10;;;;;;4987870;28;20067;-65
2022/07/23 05:29:27;;;;;;;26.98;3.40;;;37.10;40.80;;;;;;4989148;28;20065;-65
2022/07/23 05:31:53;;;;;;;23.83;3.05;;;37.00;41.20;;;;;;4988200;28;20120;-65
2022/07/23 05:34:20;;;;;;;23.42;3.58;;;37.00;41.10;;;;;;4993312;28;20054;-65
2022/07/23 05:36:46;;;;;;;18.17;3.03;;;36.90;41.60;;;;;;5003778;28;20079;-63
2022/07/23 05:39:12;;;;;;;15.02;2.88;;;36.90;41.50;;;;;;4986633;28;20026;-64
2022/07/23 05:41:39;;;;;;;21.13;3.28;;;36.90;41.90;;;;;;4986619;28;20132;-65
2022/07/23 05:44:05;;;;;;;23.13;3.40;;;36.90;42.30;;;;;;4987993;28;20089;-64
2022/07/23 05:46:31;;;;;;;24.83;3.53;;;36.80;42.20;;;;;;4989250;28;20154;-65
2022/07/23 05:48:58;;;;;;;18.67;3.38;;;36.80;42.20;;;;;;5003525;28;20109;-64
2022/07/23 05:51:25;;;;;;;15.43;3.35;;;36.70;42.20;;;;;;4986923;28;20563;-64
2022/07/23 05:53:52;;;;;;;19.63;3.35;;;36.70;42.40;;;;;;5003706;28;20567;-65
2022/07/23 05:56:20;;;;;;;17.42;3.03;;;36.70;42.20;;;;;;4987019;28;20513;-64
2022/07/23 05:58:47;;;;;;;11.15;3.20;;;36.60;42.20;;;;;;4987871;28;20092;-64
2022/07/23 06:01:13;;;;;;;12.52;3.33;;;36.60;42.20;;;;;;4986953;28;20072;-65
2022/07/23 06:03:39;;;;;;;16.50;3.30;;;36.60;42.70;;;;;;5003443;28;20191;-66
2022/07/23 06:06:06;;;;;;;11.52;2.80;;;36.50;42.80;;;;;;4988123;28;20068;-65
2022/07/23 06:08:33;;;;;;;16.58;3.20;;;36.50;43.30;;;;;;4987464;28;20191;-65
2022/07/23 06:10:59;;;;;;;17.70;3.08;;;36.50;42.80;;;;;;4986488;28;20121;-65
2022/07/23 06:13:26;;;;;;;13.43;2.92;;;36.40;43.40;;;;;;4987179;28;20075;-65
2022/07/23 06:15:52;;;;;;;10.80;2.80;;;36.40;43.20;;;;;;4987466;28;20076;-65
2022/07/23 06:18:18;;;;;;;17.77;2.95;;;36.30;43.40;;;;;;4989038;28;20599;-65
2022/07/23 06:20:45;;;;;;;11.27;2.72;;;36.30;43.30;;;;;;5004463;28;20524;-64
2022/07/23 06:23:12;;;;;;;13.27;3.58;;;36.30;43.90;;;;;;4990580;28;20085;-65
2022/07/23 06:25:40;;;;;;;15.43;3.50;;;36.20;43.20;;;;;;5007232;28;20128;-63
2022/07/23 06:28:06;;;;;;;14.15;3.72;;;36.20;43.20;;;;;;5007454;28;20096;-66
2022/07/23 06:30:33;;;;;;;35.95;26.00;;;36.20;43.00;;;;;;4997136;28;20071;-64
2022/07/23 06:32:59;;;;;;;14.75;6.75;;;36.10;43.20;;;;;;4991837;28;20089;-66
2022/07/23 06:35:26;;;;;;;14.68;5.43;;;36.10;44.30;;;;;;4989535;28;20550;-65
2022/07/23 06:37:52;;;;;;;16.92;5.10;;;36.00;44.00;;;;;;4991327;28;20756;-65
2022/07/23 06:40:18;;;;;;;21.30;3.50;;;35.90;44.70;;;;;;5007324;28;20103;-65
2022/07/23 06:42:45;;;;;;;16.38;3.30;;;35.90;44.40;;;;;;4988391;28;20100;-65
2022/07/23 06:45:11;;;;;;;16.98;3.40;;;35.90;44.00;;;;;;4991161;28;20518;-66
2022/07/23 06:47:38;;;;;;;15.95;3.83;;;35.90;43.90;;;;;;4989623;28;20093;-64
2022/07/23 06:50:05;;;;;;;16.73;3.17;;;35.90;43.80;;;;;;5005512;28;20108;-65
2022/07/23 06:52:31;;;;;;;18.10;3.60;;;35.80;43.80;;;;;;4989488;28;20140;-65
2022/07/23 06:54:58;;;;;;;10.43;2.97;;;35.80;43.90;;;;;;4990498;28;20105;-65
2022/07/23 06:57:25;;;;;;;12.57;3.70;;;35.80;43.90;;;;;;4989857;28;20096;-65
2022/07/23 06:59:52;;;;;;;7.25;2.22;;;35.70;44.00;;;;;;4990533;28;20177;-68
2022/07/23 07:02:18;;;;;;;12.07;2.75;;;35.80;44.40;;;;;;4989712;28;20233;-68
2022/07/23 07:04:45;;;;;;;9.93;2.78;;;35.70;45.20;;;;;;4991307;28;20443;-68
2022/07/23 07:07:12;;;;;;;11.48;2.72;;;35.70;45.10;;;;;;5005881;28;20065;-66
2022/07/23 07:09:38;;;;;;;13.18;3.00;;;35.60;44.30;;;;;;5006571;28;20172;-66
2022/07/23 07:12:05;;;;;;;12.48;2.63;;;35.60;44.30;;;;;;5006421;28;20529;-65
2022/07/23 07:14:31;;;;;;;8.73;3.00;;;35.60;44.10;;;;;;4988649;28;20519;-66
2022/07/23 07:16:58;;;;;;;13.23;3.13;;;35.50;44.40;;;;;;4990081;28;20114;-67
2022/07/23 07:19:24;;;;;;;11.93;3.03;;;35.60;45.00;;;;;;4989249;28;20115;-66
2022/07/23 07:21:50;;;;;;;17.02;3.40;;;35.60;45.50;;;;;;4990076;28;20202;-67
2022/07/23 07:24:17;;;;;;;17.80;3.78;;;35.60;45.30;;;;;;5005483;28;20071;-65
2022/07/23 07:26:43;;;;;;;15.57;3.10;;;35.60;44.50;;;;;;4990135;28;20527;-66
2022/07/23 07:29:10;;;;;;;13.75;3.10;;;35.50;44.40;;;;;;5006320;28;20088;-67
2022/07/23 07:31:36;;;;;;;11.73;2.88;;;35.50;44.40;;;;;;4989448;28;20510;-66
2022/07/23 07:34:03;;;;;;;9.85;2.92;;;35.50;44.30;;;;;;4989512;28;20082;-67
2022/07/23 07:36:29;;;;;;;8.20;2.20;;;35.50;45.00;;;;;;4993431;28;20148;-66
2022/07/23 07:38:56;;;;;;;10.70;2.65;;;35.50;45.70;;;;;;5002102;28;20081;-67
2022/07/23 07:41:23;;;;;;;9.63;2.95;;;35.50;45.40;;;;;;4988323;28;20090;-64
2022/07/23 07:43:50;;;;;;;13.73;2.53;;;35.50;45.30;;;;;;4988739;28;20527;-66
2022/07/23 07:46:17;;;;;;;20.23;3.20;;;35.50;45.30;;;;;;5004931;28;20550;-66
2022/07/23 07:48:43;;;;;;;15.80;2.83;;;35.40;45.80;;;;;;4988839;28;20133;-67
2022/07/23 07:51:10;;;;;;;17.88;3.08;;;35.40;45.80;;;;;;4990967;28;20095;-66
2022/07/23 07:53:37;;;;;;;10.73;3.42;;;35.30;45.50;;;;;;4989428;28;20167;-66
2022/07/23 07:56:03;;;;;;;15.77;3.58;;;35.30;45.00;;;;;;4988804;28;20498;-66
2022/07/23 07:58:30;;;;;;;11.05;3.60;;;35.30;45.10;;;;;;4987820;28;20180;-66
2022/07/23 08:00:56;;;;;;;13.38;3.55;;;35.30;45.20;;;;;;4990219;28;20068;-68
2022/07/23 08:03:22;;;;;;;20.20;4.00;;;35.30;45.30;;;;;;4989447;28;20104;-68
2022/07/23 08:05:49;;;;;;;15.68;4.10;;;35.20;45.10;;;;;;4988987;28;20094;-67
2022/07/23 08:08:15;;;;;;;15.43;3.47;;;35.20;45.40;;;;;;4989438;28;20080;-65
2022/07/23 08:10:43;;;;;;;17.63;3.55;;;35.20;45.60;;;;;;4990181;28;20089;-65
2022/07/23 08:13:16;;;;;;;15.52;3.58;;;35.10;46.10;;;;;;4988729;28;20124;-65
2022/07/23 08:15:43;;;;;;;8.88;3.00;;;35.10;46.70;;;;;;5004184;28;20479;-67
2022/07/23 08:18:10;;;;;;;15.02;4.00;;;35.10;47.00;;;;;;4988208;28;20093;-67
2022/07/23 08:20:36;;;;;;;13.48;3.97;;;35.00;46.80;;;;;;4989731;28;20069;-66
2022/07/23 08:23:07;;;;;;;13.20;3.85;;;35.00;47.70;;;;;;4988188;28;20085;-65
2022/07/23 08:25:37;;;;;;;13.45;4.00;;;34.90;48.00;;;;;;4988751;28;20112;-65
2022/07/23 08:28:05;;;;;;;11.95;4.30;;;34.90;48.20;;;;;;4990089;28;20069;-65
2022/07/23 08:30:33;;;;;;;14.10;3.17;;;34.90;47.70;;;;;;4990184;28;20421;-66
2022/07/23 08:33:07;;;;;;;11.00;3.20;;;34.80;47.60;;;;;;5004904;28;20462;-65
2022/07/23 08:35:55;;;;;;;15.45;2.97;;;34.80;47.90;;;;;;4988847;28;20092;-65
2022/07/23 08:38:23;;;;;;;18.08;3.00;;;34.70;47.90;;;;;;5004897;28;20077;-65
2022/07/23 08:40:57;;;;;;;13.98;3.03;;;34.70;48.30;;;;;;5004998;28;20112;-66
2022/07/23 08:43:26;;;;;;;14.85;2.80;;;34.80;48.50;;;;;;4987159;28;20096;-64
2022/07/23 08:45:58;;;;;;;11.80;3.00;;;34.70;47.80;;;;;;4989113;28;20068;-65
2022/07/23 08:48:38;;;;;;;13.93;2.83;;;34.60;48.20;;;;;;4999430;28;20598;-65
2022/07/23 08:51:06;;;;;;;15.23;3.05;;;34.60;48.40;;;;;;4990070;28;20076;-67
2022/07/23 08:53:35;;;;;;;24.48;3.67;;;34.60;48.60;;;;;;4974570;28;20073;-66
2022/07/23 08:56:03;;;;;;;17.08;2.92;;;34.50;49.50;;;;;;4991563;28;20081;-65
2022/07/23 08:58:31;;;;;;;14.85;3.42;;;34.50;49.00;;;;;;5007913;28;20479;-65
2022/07/23 09:00:58;;;;;;;13.43;2.65;;;34.50;49.70;;;;;;4992277;28;20085;-65
2022/07/23 09:03:30;;;;;;;11.98;2.85;;;34.50;49.70;;;;;;5007734;28;20571;-65
2022/07/23 09:05:57;;;;;;;12.75;3.00;;;34.40;49.20;;;;;;5007053;28;20073;-65
2022/07/23 09:08:34;;;;;;;13.43;2.58;;;34.30;49.00;;;;;;4991561;28;20104;-66
2022/07/23 09:11:02;;;;;;;9.80;2.60;;;34.20;49.30;;;;;;5008505;28;20073;-66
2022/07/23 09:13:48;;;;;;;11.43;2.45;;;34.20;50.40;;;;;;5008643;28;20151;-66
2022/07/23 09:16:19;;;;;;;15.97;3.03;;;34.20;50.40;;;;;;5006468;28;20100;-66
2022/07/23 09:18:56;;;;;;;15.48;3.15;;;34.10;50.00;;;;;;4989906;28;20570;-66
2022/07/23 09:21:28;;;;;;;12.18;2.60;;;34.10;50.10;;;;;;5009275;28;20081;-66
2022/07/23 09:24:03;;;;;;;12.15;3.28;;;34.00;50.60;;;;;;4991340;28;20451;-66
2022/07/23 09:26:47;;;;;;;12.53;2.90;;;34.00;51.00;;;;;;4991053;28;20212;-67
2022/07/23 09:29:25;;;;;;;10.35;2.70;;;33.90;51.50;;;;;;5001137;28;20592;-67
2022/07/23 09:31:54;;;;;;;16.77;3.03;;;33.90;51.70;;;;;;4977350;28;20485;-67
2022/07/23 09:34:24;;;;;;;17.85;2.63;;;33.80;52.30;;;;;;5008014;28;20163;-66
2022/07/23 09:36:56;;;;;;;13.63;3.25;;;33.80;52.60;;;;;;5008240;28;21054;-66
2022/07/23 09:39:32;;;;;;;11.30;2.90;;;33.70;52.90;;;;;;4990191;28;20573;-65
2022/07/23 09:42:20;;;;;;;15.57;2.40;;;33.70;53.30;;;;;;4991161;28;20107;-66
2022/07/23 09:44:49;;;;;;;9.15;2.50;;;33.70;53.50;;;;;;4990090;28;20081;-66
2022/07/23 09:47:17;;;;;;;13.90;2.92;;;33.70;53.80;;;;;;4998845;28;20535;-68
2022/07/23 09:50:08;;;;;;;15.93;2.35;;;33.70;54.50;;;;;;4974249;28;20138;-66
2022/07/23 09:52:43;;;;;;;16.38;2.63;;;33.70;54.20;;;;;;5005558;28;20124;-65
2022/07/23 09:55:10;;;;;;;7.53;2.50;;;33.70;54.50;;;;;;4990597;28;20073;-65
2022/07/23 09:57:39;;;;;;;11.27;2.80;;;33.70;54.60;;;;;;4998958;28;20097;-65
2022/07/23 10:00:09;;;;;;;13.48;2.72;;;33.70;54.70;;;;;;4995380;28;20089;-63
2022/07/23 10:02:36;;;;;;;9.57;2.53;;;33.60;55.00;;;;;;4983470;28;20089;-66
2022/07/23 10:05:04;;;;;;;13.88;3.28;;;33.60;55.10;;;;;;5010580;28;20184;-66
2022/07/23 10:07:37;;;;;;;13.68;3.03;;;33.60;55.40;;;;;;4978309;28;20420;-65
2022/07/23 10:10:05;;;;;;;11.38;2.60;;;33.60;55.40;;;;;;4978665;28;20432;-65
2022/07/23 10:15:28;;;;;;;15.32;3.88;;;33.60;55.50;;;;;;4963380;28;20098;-66
2022/07/23 10:17:54;;;;;;;14.65;3.10;;;33.60;55.80;;;;;;4994271;28;20119;-66
2022/07/23 10:20:21;;;;;;;12.73;3.05;;;33.40;56.10;;;;;;5011953;28;20077;-66
2022/07/23 10:23:10;;;;;;;14.27;3.50;;;33.50;56.30;;;;;;4993533;28;20089;-66
2022/07/23 10:26:06;;;;;;;20.80;3.45;;;33.40;56.40;;;;;;4976749;28;20068;-67
2022/07/23 10:28:51;;;;;;;12.68;2.90;;;33.30;57.20;;;;;;4979449;28;20487;-66
2022/07/23 10:31:28;;;;;;;14.25;2.88;;;33.20;57.70;;;;;;5009947;28;20073;-66
2022/07/23 10:34:01;;;;;;;12.90;3.03;;;33.30;57.90;;;;;;4994691;28;20156;-66
2022/07/23 10:36:56;;;;;;;14.60;3.25;;;33.20;58.30;;;;;;5009570;28;20089;-66
2022/07/23 10:39:32;;;;;;;12.15;2.83;;;33.20;58.60;;;;;;5009409;28;20077;-66
2022/07/23 10:42:12;;;;;;;;;;;33.10;58.90;;;;;;4993756;28;20077;-67
2022/07/23 10:44:44;;;;;;;14.85;2.90;;;33.10;58.90;;;;;;5009213;28;19956;-68
2022/07/23 10:49:45;;;;;;;12.63;3.10;;;33.10;58.90;;;;;;5009296;28;20101;-68
2022/07/23 10:52:14;;;;;;;16.23;3.47;;;33.20;59.00;;;;;;4993808;28;20172;-66
2022/07/23 10:54:42;;;;;;;16.23;4.20;;;33.10;59.10;;;;;;5010103;28;20085;-67
2022/07/23 10:57:09;;;;;;;21.00;4.15;;;33.20;59.20;;;;;;4977015;28;20163;-67
2022/07/23 11:00:01;;;;;;;15.85;4.20;;;33.20;59.00;;;;;;4994451;28;20431;-66
2022/07/23 11:02:30;;;;;;;16.55;4.22;;;33.20;58.90;;;;;;5011505;28;20096;-66
2022/07/23 11:05:02;;;;;;;14.10;3.67;;;33.20;58.80;;;;;;5012249;28;20153;-68
2022/07/23 11:07:28;;;;;;;15.30;4.20;;;33.10;58.40;;;;;;4992408;28;20508;-66
2022/07/23 11:09:55;;;;;;;10.10;3.72;;;33.20;58.60;;;;;;4994025;28;20069;-66
2022/07/23 11:12:21;;;;;;;17.15;4.05;;;33.20;58.20;;;;;;4992706;28;20080;-66
2022/07/23 11:15:07;;;;;;;11.13;3.75;;;33.20;57.80;;;;;;5007893;28;20543;-66
2022/07/23 11:17:46;;;;;;;13.55;3.75;;;33.20;57.80;;;;;;5008719;28;20072;-69
2022/07/23 11:20:23;;;;;;;13.45;3.83;;;33.30;57.60;;;;;;4993356;28;20119;-66
2022/07/23 11:22:57;;;;;;;13.85;3.58;;;33.30;57.50;;;;;;4991969;28;20096;-67
2022/07/23 11:25:30;;;;;;;12.82;3.75;;;33.30;57.50;;;;;;5010634;28;20079;-66
2022/07/23 11:28:12;;;;;;;13.02;3.50;;;33.30;58.30;;;;;;5011847;28;20089;-67
2022/07/23 11:30:46;;;;;;;16.23;3.72;;;33.30;57.90;;;;;;5011306;28;20069;-66
2022/07/23 11:33:12;;;;;;;12.70;3.28;;;33.30;58.20;;;;;;4992400;28;20124;-66
2022/07/23 11:35:44;;;;;;;12.48;3.50;;;33.30;58.60;;;;;;5009629;28;20174;-66
2022/07/23 11:38:21;;;;;;;9.35;3.10;;;33.30;59.30;;;;;;5010587;28;20089;-66
2022/07/23 11:40:51;;;;;;;15.88;3.40;;;33.40;59.70;;;;;;4991189;28;20640;-65
2022/07/23 11:43:18;;;;;;;11.18;3.10;;;33.40;59.20;;;;;;4992453;28;20618;-66
2022/07/23 11:45:53;;;;;;;11.00;3.10;;;33.20;59.10;;;;;;4991545;28;20552;-66
2022/07/23 11:48:22;;;;;;;13.52;3.17;;;33.30;59.70;;;;;;4990957;28;20564;-66
2022/07/23 11:50:50;;;;;;;10.68;2.83;;;33.20;60.20;;;;;;4992198;28;20529;-68
2022/07/23 11:53:28;;;;;;;13.65;2.72;;;33.10;60.50;;;;;;4992522;28;20100;-66
2022/07/23 11:56:03;;;;;;;8.95;2.60;;;33.10;60.90;;;;;;4992568;28;20172;-66
2022/07/23 11:58:29;;;;;;;15.73;3.13;;;33.10;60.70;;;;;;4992517;28;20076;-66
2022/07/23 12:00:56;;;;;;;16.55;2.60;;;33.10;60.30;;;;;;5010877;28;20081;-66
2022/07/23 12:03:22;;;;;;;18.92;2.97;;;33.10;60.00;;;;;;4992278;28;20187;-66
2022/07/23 12:05:49;;;;;;;12.75;2.97;;;33.20;59.50;;;;;;5010481;28;20073;-65
2022/07/23 12:08:15;;;;;;;10.57;2.92;;;33.20;59.00;;;;;;4992890;28;20842;-66
2022/07/23 12:10:44;;;;;;;15.07;2.83;;;33.30;58.80;;;;;;4990836;28;20546;-65
2022/07/23 12:13:20;;;;;;;16.02;2.80;;;33.30;58.50;;;;;;4992371;28;21010;-67
2022/07/23 12:15:56;;;;;;;13.85;3.10;;;33.40;58.10;;;;;;4992087;28;20111;-66
2022/07/23 12:18:25;;;;;;;12.50;3.17;;;33.40;57.70;;;;;;4973504;28;20469;-65
2022/07/23 12:20:56;;;;;;;13.40;3.50;;;33.40;58.00;;;;;;4976408;28;20127;-65
2022/07/23 12:23:24;;;;;;;16.98;3.25;;;33.40;57.90;;;;;;4991404;28;20172;-65
2022/07/23 12:25:52;;;;;;;15.45;3.78;;;33.40;57.80;;;;;;4991707;28;20066;-66
2022/07/23 12:28:20;;;;;;;15.38;3.78;;;33.40;57.90;;;;;;5008782;28;20073;-65
2022/07/23 12:30:49;;;;;;;18.00;5.43;;;33.40;57.80;;;;;;5009032;28;20088;-65
2022/07/23 12:33:25;;;;;;;15.95;5.00;;;33.40;57.90;;;;;;4974724;28;20082;-65
2022/07/23 12:36:00;;;;;;;18.27;3.92;;;33.50;57.70;;;;;;4959708;28;20234;-66
2022/07/23 12:38:28;;;;;;;15.20;4.18;;;33.40;57.90;;;;;;4978787;28;20089;-66
2022/07/23 12:41:02;;;;;;;16.30;4.88;;;33.40;58.30;;;;;;4975280;28;20131;-68
2022/07/23 12:43:32;;;;;;;20.42;4.53;;;33.30;59.00;;;;;;5003176;28;20085;-66
2022/07/23 12:46:14;;;;;;;22.75;6.18;;;33.30;59.40;;;;;;4991602;28;20084;-66
2022/07/23 12:48:54;;;;;;;19.17;5.95;;;33.30;59.70;;;;;;4990797;28;20097;-66
2022/07/23 12:51:25;;;;;;;24.40;7.25;;;33.20;60.10;;;;;;5007824;28;20089;-66